sensor_id;sensor_type;location;lat;lon;timestamp;temperature;humidity
3055;DHT22;1537;52.018;8.542;2023-05-07T00:01:29;13.60;99.90
3055;DHT22;1537;52.018;8.542;2023-05-07T00:04:52;13.60;99.90
3055;DHT22;1537;52.018;8.542;2023-05-07T00:08:16;13.50;99.90
3055;DHT22;1537;52.018;8.542;2023-05-07T00:11:44;13.50;99.90
3055;DHT22;1537;52.018;8.542;2023-05-07T00:15:09;13.50;99.90
3055;DHT22;1537;52.018;8.542;2023-05-07T00:18:35;13.50;99.90
3055;DHT22;1537;52.018;8.542;2023-05-07T00:21:58;13.50;99.90
3055;DHT22;1537;52.018;8.542;2023-05-07T00:25:22;13.50;99.90
3055;DHT22;1537;52.018;8.542;2023-05-07T00:28:46;13.50;99.90
3055;DHT22;1537;52.018;8.542;2023-05-07T00:32:12;13.50;99.90
3055;DHT22;1537;52.018;8.542;2023-05-07T00:35:39;13.50;99.90
3055;DHT22;1537;52.018;8.542;2023-05-07T00:39:02;13.50;99.90
3055;DHT22;1537;52.018;8.542;2023-05-07T00:42:29;13.40;99.90
3055;DHT22;1537;52.018;8.542;2023-05-07T00:45:54;13.40;99.90
3055;DHT22;1537;52.018;8.542;2023-05-07T00:49:21;13.30;99.90
3055;DHT22;1537;52.018;8.542;2023-05-07T00:52:49;13.30;99.90
3055;DHT22;1537;52.018;8.542;2023-05-07T00:56:15;13.20;99.90
3055;DHT22;1537;52.018;8.542;2023-05-07T00:59:40;13.10;99.90
3055;DHT22;1537;52.018;8.542;2023-05-07T01:03:05;13.10;99.90
3055;DHT22;1537;52.018;8.542;2023-05-07T01:06:32;13.10;99.90
3055;DHT22;1537;52.018;8.542;2023-05-07T01:10:06;13.10;99.90
3055;DHT22;1537;52.018;8.542;2023-05-07T01:13:32;13.10;99.90
3055;DHT22;1537;52.018;8.542;2023-05-07T01:16:56;13.00;99.90
3055;DHT22;1537;52.018;8.542;2023-05-07T01:20:23;12.90;99.90
3055;DHT22;1537;52.018;8.542;2023-05-07T01:23:50;12.90;99.90
3055;DHT22;1537;52.018;8.542;2023-05-07T01:27:14;12.90;99.90
3055;DHT22;1537;52.018;8.542;2023-05-07T01:30:41;12.90;99.90
3055;DHT22;1537;52.018;8.542;2023-05-07T01:34:08;12.90;99.90
3055;DHT22;1537;52.018;8.542;2023-05-07T01:37:34;13.00;99.90
3055;DHT22;1537;52.018;8.542;2023-05-07T01:41:00;12.90;99.90
3055;DHT22;1537;52.018;8.542;2023-05-07T01:44:24;12.90;99.90
3055;DHT22;1537;52.018;8.542;2023-05-07T01:47:50;12.90;99.90
3055;DHT22;1537;52.018;8.542;2023-05-07T01:51:14;12.90;99.90
3055;DHT22;1537;52.018;8.542;2023-05-07T01:54:40;12.90;99.90
3055;DHT22;1537;52.018;8.542;2023-05-07T01:58:05;12.90;99.90
3055;DHT22;1537;52.018;8.542;2023-05-07T02:01:31;12.70;99.90
3055;DHT22;1537;52.018;8.542;2023-05-07T02:04:58;12.60;99.90
3055;DHT22;1537;52.018;8.542;2023-05-07T02:08:22;12.60;99.90
3055;DHT22;1537;52.018;8.542;2023-05-07T02:11:46;12.50;99.90
3055;DHT22;1537;52.018;8.542;2023-05-07T02:15:11;12.50;99.90
3055;DHT22;1537;52.018;8.542;2023-05-07T02:18:35;12.40;99.90
3055;DHT22;1537;52.018;8.542;2023-05-07T02:22:00;12.50;99.90
3055;DHT22;1537;52.018;8.542;2023-05-07T02:25:25;12.40;99.90
3055;DHT22;1537;52.018;8.542;2023-05-07T02:28:50;12.50;99.90
3055;DHT22;1537;52.018;8.542;2023-05-07T02:32:15;12.50;99.90
3055;DHT22;1537;52.018;8.542;2023-05-07T02:35:40;12.50;99.90
3055;DHT22;1537;52.018;8.542;2023-05-07T02:39:05;12.50;99.90
3055;DHT22;1537;52.018;8.542;2023-05-07T02:42:29;12.60;99.90
3055;DHT22;1537;52.018;8.542;2023-05-07T02:46:00;12.60;99.90
3055;DHT22;1537;52.018;8.542;2023-05-07T02:49:26;12.60;99.90
3055;DHT22;1537;52.018;8.542;2023-05-07T02:52:50;12.50;99.90
3055;DHT22;1537;52.018;8.542;2023-05-07T02:56:14;12.40;99.90
3055;DHT22;1537;52.018;8.542;2023-05-07T02:59:38;12.30;99.90
3055;DHT22;1537;52.018;8.542;2023-05-07T03:03:02;12.30;99.90
3055;DHT22;1537;52.018;8.542;2023-05-07T03:06:28;12.40;99.90
3055;DHT22;1537;52.018;8.542;2023-05-07T03:09:54;12.40;99.90
3055;DHT22;1537;52.018;8.542;2023-05-07T03:13:18;12.30;99.90
3055;DHT22;1537;52.018;8.542;2023-05-07T03:16:43;12.40;99.90
3055;DHT22;1537;52.018;8.542;2023-05-07T03:20:09;12.20;99.90
3055;DHT22;1537;52.018;8.542;2023-05-07T03:23:35;12.10;99.90
3055;DHT22;1537;52.018;8.542;2023-05-07T03:27:00;12.20;99.90
3055;DHT22;1537;52.018;8.542;2023-05-07T03:30:25;12.20;99.90
3055;DHT22;1537;52.018;8.542;2023-05-07T03:33:52;12.20;99.90
3055;DHT22;1537;52.018;8.542;2023-05-07T03:37:16;12.20;99.90
3055;DHT22;1537;52.018;8.542;2023-05-07T03:40:41;12.30;99.90
3055;DHT22;1537;52.018;8.542;2023-05-07T03:44:05;12.20;99.90
3055;DHT22;1537;52.018;8.542;2023-05-07T03:47:29;12.10;99.90
3055;DHT22;1537;52.018;8.542;2023-05-07T03:50:54;12.20;99.90
3055;DHT22;1537;52.018;8.542;2023-05-07T03:54:18;12.20;99.90
3055;DHT22;1537;52.018;8.542;2023-05-07T03:57:44;12.10;99.90
3055;DHT22;1537;52.018;8.542;2023-05-07T04:01:09;12.20;99.90
3055;DHT22;1537;52.018;8.542;2023-05-07T04:04:32;12.10;99.90
3055;DHT22;1537;52.018;8.542;2023-05-07T04:07:57;12.10;99.90
3055;DHT22;1537;52.018;8.542;2023-05-07T04:11:29;12.10;99.90
3055;DHT22;1537;52.018;8.542;2023-05-07T04:14:57;12.20;99.90
3055;DHT22;1537;52.018;8.542;2023-05-07T04:18:21;12.20;99.90
3055;DHT22;1537;52.018;8.542;2023-05-07T04:21:46;12.00;99.90
3055;DHT22;1537;52.018;8.542;2023-05-07T04:25:10;11.90;99.90
3055;DHT22;1537;52.018;8.542;2023-05-07T04:28:35;11.90;99.90
3055;DHT22;1537;52.018;8.542;2023-05-07T04:32:00;12.00;99.90
3055;DHT22;1537;52.018;8.542;2023-05-07T04:35:24;12.00;99.90
3055;DHT22;1537;52.018;8.542;2023-05-07T04:38:49;12.10;99.90
3055;DHT22;1537;52.018;8.542;2023-05-07T04:42:14;12.10;99.90
3055;DHT22;1537;52.018;8.542;2023-05-07T04:45:39;12.00;99.90
3055;DHT22;1537;52.018;8.542;2023-05-07T04:49:05;12.00;99.90
3055;DHT22;1537;52.018;8.542;2023-05-07T04:52:31;12.00;99.90
3055;DHT22;1537;52.018;8.542;2023-05-07T04:55:56;12.10;99.90
3055;DHT22;1537;52.018;8.542;2023-05-07T04:59:31;12.00;99.90
3055;DHT22;1537;52.018;8.542;2023-05-07T05:02:56;12.00;99.90
3055;DHT22;1537;52.018;8.542;2023-05-07T05:06:21;12.00;99.90
3055;DHT22;1537;52.018;8.542;2023-05-07T05:09:46;12.10;99.90
3055;DHT22;1537;52.018;8.542;2023-05-07T05:13:10;12.10;99.90
3055;DHT22;1537;52.018;8.542;2023-05-07T05:16:36;12.20;99.90
3055;DHT22;1537;52.018;8.542;2023-05-07T05:20:01;12.30;99.90
3055;DHT22;1537;52.018;8.542;2023-05-07T05:23:29;12.30;99.90
3055;DHT22;1537;52.018;8.542;2023-05-07T05:26:54;12.40;99.90
3055;DHT22;1537;52.018;8.542;2023-05-07T05:30:19;12.40;99.90
3055;DHT22;1537;52.018;8.542;2023-05-07T05:33:45;12.40;99.90
3055;DHT22;1537;52.018;8.542;2023-05-07T05:37:09;12.50;99.90
3055;DHT22;1537;52.018;8.542;2023-05-07T05:40:35;12.50;99.90
3055;DHT22;1537;52.018;8.542;2023-05-07T05:43:59;12.70;99.90
3055;DHT22;1537;52.018;8.542;2023-05-07T05:47:24;12.50;99.90
3055;DHT22;1537;52.018;8.542;2023-05-07T05:50:51;12.60;99.90
3055;DHT22;1537;52.018;8.542;2023-05-07T05:54:15;12.80;99.90
3055;DHT22;1537;52.018;8.542;2023-05-07T05:57:40;12.90;99.90
3055;DHT22;1537;52.018;8.542;2023-05-07T06:01:05;13.00;99.90
3055;DHT22;1537;52.018;8.542;2023-05-07T06:04:32;13.00;99.90
3055;DHT22;1537;52.018;8.542;2023-05-07T06:07:59;12.90;99.90
3055;DHT22;1537;52.018;8.542;2023-05-07T06:11:27;13.10;99.90
3055;DHT22;1537;52.018;8.542;2023-05-07T06:14:55;13.10;99.90
3055;DHT22;1537;52.018;8.542;2023-05-07T06:18:21;13.20;99.90
3055;DHT22;1537;52.018;8.542;2023-05-07T06:21:46;13.00;99.90
3055;DHT22;1537;52.018;8.542;2023-05-07T06:25:10;13.00;99.90
3055;DHT22;1537;52.018;8.542;2023-05-07T06:28:35;13.00;99.90
3055;DHT22;1537;52.018;8.542;2023-05-07T06:32:07;13.10;99.90
3055;DHT22;1537;52.018;8.542;2023-05-07T06:35:34;13.20;99.90
3055;DHT22;1537;52.018;8.542;2023-05-07T06:38:58;13.50;99.90
3055;DHT22;1537;52.018;8.542;2023-05-07T06:42:23;13.30;99.90
3055;DHT22;1537;52.018;8.542;2023-05-07T06:45:53;13.30;99.90
3055;DHT22;1537;52.018;8.542;2023-05-07T06:49:18;13.50;99.90
3055;DHT22;1537;52.018;8.542;2023-05-07T06:52:44;13.70;99.90
3055;DHT22;1537;52.018;8.542;2023-05-07T06:56:08;13.70;99.90
3055;DHT22;1537;52.018;8.542;2023-05-07T06:59:33;14.00;99.90
3055;DHT22;1537;52.018;8.542;2023-05-07T07:03:00;14.10;99.90
3055;DHT22;1537;52.018;8.542;2023-05-07T07:06:26;14.00;99.90
3055;DHT22;1537;52.018;8.542;2023-05-07T07:09:51;14.30;99.90
3055;DHT22;1537;52.018;8.542;2023-05-07T07:13:15;14.70;99.90
3055;DHT22;1537;52.018;8.542;2023-05-07T07:16:39;14.90;99.90
3055;DHT22;1537;52.018;8.542;2023-05-07T07:20:04;15.30;99.90
3055;DHT22;1537;52.018;8.542;2023-05-07T07:23:29;15.60;99.90
3055;DHT22;1537;52.018;8.542;2023-05-07T07:26:53;15.90;99.90
3055;DHT22;1537;52.018;8.542;2023-05-07T07:30:19;15.50;99.90
3055;DHT22;1537;52.018;8.542;2023-05-07T07:33:45;15.30;99.90
3055;DHT22;1537;52.018;8.542;2023-05-07T07:37:09;15.60;99.90
3055;DHT22;1537;52.018;8.542;2023-05-07T07:40:36;15.60;99.90
3055;DHT22;1537;52.018;8.542;2023-05-07T07:44:03;15.40;99.90
3055;DHT22;1537;52.018;8.542;2023-05-07T07:47:31;15.10;99.90
3055;DHT22;1537;52.018;8.542;2023-05-07T07:50:56;15.20;99.90
3055;DHT22;1537;52.018;8.542;2023-05-07T07:54:20;15.20;99.90
3055;DHT22;1537;52.018;8.542;2023-05-07T07:57:45;15.50;99.90
3055;DHT22;1537;52.018;8.542;2023-05-07T08:01:11;15.50;99.90
3055;DHT22;1537;52.018;8.542;2023-05-07T08:04:38;15.60;99.90
3055;DHT22;1537;52.018;8.542;2023-05-07T08:08:06;15.60;99.90
3055;DHT22;1537;52.018;8.542;2023-05-07T08:11:39;15.50;99.90
3055;DHT22;1537;52.018;8.542;2023-05-07T08:15:10;15.50;99.90
3055;DHT22;1537;52.018;8.542;2023-05-07T08:18:34;15.60;99.90
3055;DHT22;1537;52.018;8.542;2023-05-07T08:22:00;15.60;99.90
3055;DHT22;1537;52.018;8.542;2023-05-07T08:25:24;15.60;99.90
3055;DHT22;1537;52.018;8.542;2023-05-07T08:28:49;15.90;99.90
3055;DHT22;1537;52.018;8.542;2023-05-07T08:32:16;16.40;99.90
3055;DHT22;1537;52.018;8.542;2023-05-07T08:35:41;16.10;99.90
3055;DHT22;1537;52.018;8.542;2023-05-07T08:39:08;16.00;99.90
3055;DHT22;1537;52.018;8.542;2023-05-07T08:42:35;15.80;99.90
3055;DHT22;1537;52.018;8.542;2023-05-07T08:46:01;15.80;99.90
3055;DHT22;1537;52.018;8.542;2023-05-07T08:49:31;16.20;99.90
3055;DHT22;1537;52.018;8.542;2023-05-07T08:52:55;15.90;99.90
3055;DHT22;1537;52.018;8.542;2023-05-07T08:56:19;16.20;99.90
3055;DHT22;1537;52.018;8.542;2023-05-07T08:59:46;16.90;99.90
3055;DHT22;1537;52.018;8.542;2023-05-07T09:03:10;17.10;99.90
3055;DHT22;1537;52.018;8.542;2023-05-07T09:06:38;16.90;99.90
3055;DHT22;1537;52.018;8.542;2023-05-07T09:10:07;17.20;99.90
3055;DHT22;1537;52.018;8.542;2023-05-07T09:13:33;16.80;99.90
3055;DHT22;1537;52.018;8.542;2023-05-07T09:16:58;16.80;99.90
3055;DHT22;1537;52.018;8.542;2023-05-07T09:20:23;17.00;99.90
3055;DHT22;1537;52.018;8.542;2023-05-07T09:23:50;16.40;99.90
3055;DHT22;1537;52.018;8.542;2023-05-07T09:27:17;16.20;99.90
3055;DHT22;1537;52.018;8.542;2023-05-07T09:30:42;16.40;99.90
3055;DHT22;1537;52.018;8.542;2023-05-07T09:34:08;15.90;99.90
3055;DHT22;1537;52.018;8.542;2023-05-07T09:37:35;16.90;99.90
3055;DHT22;1537;52.018;8.542;2023-05-07T09:41:05;17.00;99.90
3055;DHT22;1537;52.018;8.542;2023-05-07T09:44:34;17.10;99.90
3055;DHT22;1537;52.018;8.542;2023-05-07T09:48:04;17.10;99.90
3055;DHT22;1537;52.018;8.542;2023-05-07T09:51:32;16.80;99.90
3055;DHT22;1537;52.018;8.542;2023-05-07T09:54:59;17.20;99.90
3055;DHT22;1537;52.018;8.542;2023-05-07T09:58:28;17.40;99.90
3055;DHT22;1537;52.018;8.542;2023-05-07T10:01:57;18.30;99.90
3055;DHT22;1537;52.018;8.542;2023-05-07T10:05:22;19.00;99.90
3055;DHT22;1537;52.018;8.542;2023-05-07T10:08:51;18.20;99.90
3055;DHT22;1537;52.018;8.542;2023-05-07T10:12:16;17.70;99.90
3055;DHT22;1537;52.018;8.542;2023-05-07T10:15:42;18.30;99.90
3055;DHT22;1537;52.018;8.542;2023-05-07T10:19:08;18.60;99.90
3055;DHT22;1537;52.018;8.542;2023-05-07T10:22:39;19.20;99.90
3055;DHT22;1537;52.018;8.542;2023-05-07T10:26:08;20.40;99.00
3055;DHT22;1537;52.018;8.542;2023-05-07T10:29:37;20.70;98.60
3055;DHT22;1537;52.018;8.542;2023-05-07T10:33:06;21.00;97.50
3055;DHT22;1537;52.018;8.542;2023-05-07T10:36:33;20.30;98.60
3055;DHT22;1537;52.018;8.542;2023-05-07T10:40:01;20.00;98.70
3055;DHT22;1537;52.018;8.542;2023-05-07T10:43:39;20.10;98.70
3055;DHT22;1537;52.018;8.542;2023-05-07T10:47:08;19.90;98.70
3055;DHT22;1537;52.018;8.542;2023-05-07T10:50:35;20.30;98.00
3055;DHT22;1537;52.018;8.542;2023-05-07T10:54:20;20.40;97.30
3055;DHT22;1537;52.018;8.542;2023-05-07T10:57:53;19.20;98.90
3055;DHT22;1537;52.018;8.542;2023-05-07T11:01:50;18.70;99.30
3055;DHT22;1537;52.018;8.542;2023-05-07T11:05:19;18.60;99.90
3055;DHT22;1537;52.018;8.542;2023-05-07T11:08:55;18.10;99.90
3055;DHT22;1537;52.018;8.542;2023-05-07T11:12:53;17.90;99.90
3055;DHT22;1537;52.018;8.542;2023-05-07T11:16:27;18.00;99.90
3055;DHT22;1537;52.018;8.542;2023-05-07T11:20:01;18.10;99.90
3055;DHT22;1537;52.018;8.542;2023-05-07T11:24:10;18.60;99.90
3055;DHT22;1537;52.018;8.542;2023-05-07T11:27:48;18.60;99.90
3055;DHT22;1537;52.018;8.542;2023-05-07T11:31:12;18.10;99.90
3055;DHT22;1537;52.018;8.542;2023-05-07T11:34:36;18.30;99.90
3055;DHT22;1537;52.018;8.542;2023-05-07T11:38:00;18.40;99.90
3055;DHT22;1537;52.018;8.542;2023-05-07T11:41:35;18.60;99.90
3055;DHT22;1537;52.018;8.542;2023-05-07T11:44:59;18.20;99.90
3055;DHT22;1537;52.018;8.542;2023-05-07T11:48:23;18.60;99.90
3055;DHT22;1537;52.018;8.542;2023-05-07T11:51:47;18.30;99.90
3055;DHT22;1537;52.018;8.542;2023-05-07T11:55:11;18.10;99.90
3055;DHT22;1537;52.018;8.542;2023-05-07T11:58:37;18.10;99.90
3055;DHT22;1537;52.018;8.542;2023-05-07T12:02:00;18.00;99.90
3055;DHT22;1537;52.018;8.542;2023-05-07T12:05:25;18.20;99.90
3055;DHT22;1537;52.018;8.542;2023-05-07T12:08:49;18.00;99.90
3055;DHT22;1537;52.018;8.542;2023-05-07T12:12:13;17.80;99.90
3055;DHT22;1537;52.018;8.542;2023-05-07T12:15:39;18.00;99.90
3055;DHT22;1537;52.018;8.542;2023-05-07T12:19:02;17.80;99.90
3055;DHT22;1537;52.018;8.542;2023-05-07T12:22:26;17.70;99.90
3055;DHT22;1537;52.018;8.542;2023-05-07T12:25:50;17.90;99.90
3055;DHT22;1537;52.018;8.542;2023-05-07T12:29:14;18.10;99.90
3055;DHT22;1537;52.018;8.542;2023-05-07T12:32:39;18.50;99.90
3055;DHT22;1537;52.018;8.542;2023-05-07T12:36:07;18.30;99.90
3055;DHT22;1537;52.018;8.542;2023-05-07T12:39:32;18.30;99.90
3055;DHT22;1537;52.018;8.542;2023-05-07T12:43:00;18.60;99.90
3055;DHT22;1537;52.018;8.542;2023-05-07T12:46:24;18.40;99.90
3055;DHT22;1537;52.018;8.542;2023-05-07T12:49:54;18.50;99.90
3055;DHT22;1537;52.018;8.542;2023-05-07T12:53:23;18.40;99.90
3055;DHT22;1537;52.018;8.542;2023-05-07T12:57:00;18.30;99.90
3055;DHT22;1537;52.018;8.542;2023-05-07T13:00:35;17.80;99.90
3055;DHT22;1537;52.018;8.542;2023-05-07T13:04:05;18.00;99.90
3055;DHT22;1537;52.018;8.542;2023-05-07T13:07:36;18.20;99.90
3055;DHT22;1537;52.018;8.542;2023-05-07T13:11:03;18.80;99.90
3055;DHT22;1537;52.018;8.542;2023-05-07T13:14:29;18.80;99.90
3055;DHT22;1537;52.018;8.542;2023-05-07T13:18:01;18.70;99.90
3055;DHT22;1537;52.018;8.542;2023-05-07T13:21:33;17.90;99.90
3055;DHT22;1537;52.018;8.542;2023-05-07T13:25:02;18.00;99.90
3055;DHT22;1537;52.018;8.542;2023-05-07T13:28:27;18.00;99.90
3055;DHT22;1537;52.018;8.542;2023-05-07T13:31:56;18.50;99.90
3055;DHT22;1537;52.018;8.542;2023-05-07T13:35:22;18.30;99.90
3055;DHT22;1537;52.018;8.542;2023-05-07T13:38:51;18.30;99.90
3055;DHT22;1537;52.018;8.542;2023-05-07T13:42:19;18.00;99.90
3055;DHT22;1537;52.018;8.542;2023-05-07T13:45:51;18.00;99.90
3055;DHT22;1537;52.018;8.542;2023-05-07T13:49:15;18.10;99.90
3055;DHT22;1537;52.018;8.542;2023-05-07T13:52:41;17.80;99.90
3055;DHT22;1537;52.018;8.542;2023-05-07T13:56:08;17.80;99.90
3055;DHT22;1537;52.018;8.542;2023-05-07T13:59:33;17.80;99.90
3055;DHT22;1537;52.018;8.542;2023-05-07T14:02:57;17.50;99.90
3055;DHT22;1537;52.018;8.542;2023-05-07T14:06:21;17.60;99.90
3055;DHT22;1537;52.018;8.542;2023-05-07T14:09:45;17.80;99.90
3055;DHT22;1537;52.018;8.542;2023-05-07T14:13:09;17.80;99.90
3055;DHT22;1537;52.018;8.542;2023-05-07T14:16:40;18.00;99.90
3055;DHT22;1537;52.018;8.542;2023-05-07T14:20:10;17.80;99.90
3055;DHT22;1537;52.018;8.542;2023-05-07T14:23:34;17.80;99.90
3055;DHT22;1537;52.018;8.542;2023-05-07T14:26:58;17.90;99.90
3055;DHT22;1537;52.018;8.542;2023-05-07T14:30:22;17.40;99.90
3055;DHT22;1537;52.018;8.542;2023-05-07T14:33:48;17.40;99.90
3055;DHT22;1537;52.018;8.542;2023-05-07T14:37:13;17.40;99.90
3055;DHT22;1537;52.018;8.542;2023-05-07T14:40:36;17.50;99.90
3055;DHT22;1537;52.018;8.542;2023-05-07T14:44:02;17.70;99.90
3055;DHT22;1537;52.018;8.542;2023-05-07T14:47:26;17.70;99.90
3055;DHT22;1537;52.018;8.542;2023-05-07T14:50:52;17.50;99.90
3055;DHT22;1537;52.018;8.542;2023-05-07T14:54:19;17.50;99.90
3055;DHT22;1537;52.018;8.542;2023-05-07T14:57:44;17.50;99.90
3055;DHT22;1537;52.018;8.542;2023-05-07T15:01:07;17.50;99.90
3055;DHT22;1537;52.018;8.542;2023-05-07T15:04:31;17.70;99.90
3055;DHT22;1537;52.018;8.542;2023-05-07T15:07:56;17.80;99.90
3055;DHT22;1537;52.018;8.542;2023-05-07T15:11:20;17.90;99.90
3055;DHT22;1537;52.018;8.542;2023-05-07T15:14:43;17.80;99.90
3055;DHT22;1537;52.018;8.542;2023-05-07T15:18:08;17.60;99.90
3055;DHT22;1537;52.018;8.542;2023-05-07T15:21:32;17.80;99.90
3055;DHT22;1537;52.018;8.542;2023-05-07T15:24:58;17.90;99.90
3055;DHT22;1537;52.018;8.542;2023-05-07T15:28:22;17.80;99.90
3055;DHT22;1537;52.018;8.542;2023-05-07T15:31:49;17.60;99.90
3055;DHT22;1537;52.018;8.542;2023-05-07T15:35:12;17.60;99.90
3055;DHT22;1537;52.018;8.542;2023-05-07T15:38:36;17.70;99.90
3055;DHT22;1537;52.018;8.542;2023-05-07T15:42:01;17.70;99.90
3055;DHT22;1537;52.018;8.542;2023-05-07T15:45:25;17.90;99.90
3055;DHT22;1537;52.018;8.542;2023-05-07T15:48:50;17.70;99.90
3055;DHT22;1537;52.018;8.542;2023-05-07T15:52:13;17.70;99.90
3055;DHT22;1537;52.018;8.542;2023-05-07T15:55:39;17.80;99.90
3055;DHT22;1537;52.018;8.542;2023-05-07T15:59:05;17.80;99.90
3055;DHT22;1537;52.018;8.542;2023-05-07T16:02:29;17.70;99.90
3055;DHT22;1537;52.018;8.542;2023-05-07T16:05:53;17.80;99.90
3055;DHT22;1537;52.018;8.542;2023-05-07T16:09:19;17.60;99.90
3055;DHT22;1537;52.018;8.542;2023-05-07T16:12:43;17.40;99.90
3055;DHT22;1537;52.018;8.542;2023-05-07T16:16:08;17.40;99.90
3055;DHT22;1537;52.018;8.542;2023-05-07T16:19:31;17.30;99.90
3055;DHT22;1537;52.018;8.542;2023-05-07T16:22:55;17.40;99.90
3055;DHT22;1537;52.018;8.542;2023-05-07T16:26:19;17.40;99.90
3055;DHT22;1537;52.018;8.542;2023-05-07T16:29:43;17.50;99.90
3055;DHT22;1537;52.018;8.542;2023-05-07T16:33:07;17.60;99.90
3055;DHT22;1537;52.018;8.542;2023-05-07T16:36:31;17.50;99.90
3055;DHT22;1537;52.018;8.542;2023-05-07T16:39:55;17.50;99.90
3055;DHT22;1537;52.018;8.542;2023-05-07T16:43:21;17.30;99.90
3055;DHT22;1537;52.018;8.542;2023-05-07T16:46:44;17.00;99.90
3055;DHT22;1537;52.018;8.542;2023-05-07T16:50:10;16.80;99.90
3055;DHT22;1537;52.018;8.542;2023-05-07T16:53:34;16.80;99.90
3055;DHT22;1537;52.018;8.542;2023-05-07T16:56:57;16.90;99.90
3055;DHT22;1537;52.018;8.542;2023-05-07T17:00:21;17.10;99.90
3055;DHT22;1537;52.018;8.542;2023-05-07T17:03:46;16.80;99.90
3055;DHT22;1537;52.018;8.542;2023-05-07T17:07:11;16.90;99.90
3055;DHT22;1537;52.018;8.542;2023-05-07T17:10:36;16.90;99.90
3055;DHT22;1537;52.018;8.542;2023-05-07T17:13:59;16.70;99.90
3055;DHT22;1537;52.018;8.542;2023-05-07T17:17:26;16.80;99.90
3055;DHT22;1537;52.018;8.542;2023-05-07T17:20:50;16.80;99.90
3055;DHT22;1537;52.018;8.542;2023-05-07T17:24:16;16.80;99.90
3055;DHT22;1537;52.018;8.542;2023-05-07T17:27:39;16.80;99.90
3055;DHT22;1537;52.018;8.542;2023-05-07T17:31:03;16.70;99.90
3055;DHT22;1537;52.018;8.542;2023-05-07T17:34:28;16.80;99.90
3055;DHT22;1537;52.018;8.542;2023-05-07T17:37:55;16.80;99.90
3055;DHT22;1537;52.018;8.542;2023-05-07T17:41:20;16.70;99.90
3055;DHT22;1537;52.018;8.542;2023-05-07T17:44:44;16.70;99.90
3055;DHT22;1537;52.018;8.542;2023-05-07T17:48:08;16.50;99.90
3055;DHT22;1537;52.018;8.542;2023-05-07T17:51:32;16.50;99.90
3055;DHT22;1537;52.018;8.542;2023-05-07T17:55:14;16.50;99.90
3055;DHT22;1537;52.018;8.542;2023-05-07T17:58:39;16.40;99.90
3055;DHT22;1537;52.018;8.542;2023-05-07T18:02:09;16.20;99.90
3055;DHT22;1537;52.018;8.542;2023-05-07T18:05:35;16.20;99.90
3055;DHT22;1537;52.018;8.542;2023-05-07T18:08:58;16.10;99.90
3055;DHT22;1537;52.018;8.542;2023-05-07T18:12:22;16.20;99.90
3055;DHT22;1537;52.018;8.542;2023-05-07T18:15:50;16.00;99.90
3055;DHT22;1537;52.018;8.542;2023-05-07T18:19:17;15.70;99.90
3055;DHT22;1537;52.018;8.542;2023-05-07T18:22:41;15.60;99.90
3055;DHT22;1537;52.018;8.542;2023-05-07T18:26:04;15.50;99.90
3055;DHT22;1537;52.018;8.542;2023-05-07T18:29:29;15.30;99.90
3055;DHT22;1537;52.018;8.542;2023-05-07T18:32:54;15.20;99.90
3055;DHT22;1537;52.018;8.542;2023-05-07T18:36:18;15.20;99.90
3055;DHT22;1537;52.018;8.542;2023-05-07T18:39:42;15.10;99.90
3055;DHT22;1537;52.018;8.542;2023-05-07T18:43:07;15.00;99.90
3055;DHT22;1537;52.018;8.542;2023-05-07T18:46:31;15.00;99.90
3055;DHT22;1537;52.018;8.542;2023-05-07T18:49:56;14.80;99.90
3055;DHT22;1537;52.018;8.542;2023-05-07T18:53:21;14.70;99.90
3055;DHT22;1537;52.018;8.542;2023-05-07T18:56:44;14.60;99.90
3055;DHT22;1537;52.018;8.542;2023-05-07T19:00:09;14.60;99.90
3055;DHT22;1537;52.018;8.542;2023-05-07T19:03:33;14.60;99.90
3055;DHT22;1537;52.018;8.542;2023-05-07T19:06:58;14.50;99.90
3055;DHT22;1537;52.018;8.542;2023-05-07T19:10:25;14.40;99.90
3055;DHT22;1537;52.018;8.542;2023-05-07T19:13:49;14.30;99.90
3055;DHT22;1537;52.018;8.542;2023-05-07T19:17:13;14.30;99.90
3055;DHT22;1537;52.018;8.542;2023-05-07T19:20:38;14.20;99.90
3055;DHT22;1537;52.018;8.542;2023-05-07T19:24:04;14.20;99.90
3055;DHT22;1537;52.018;8.542;2023-05-07T19:27:27;14.20;99.90
3055;DHT22;1537;52.018;8.542;2023-05-07T19:30:52;14.10;99.90
3055;DHT22;1537;52.018;8.542;2023-05-07T19:34:16;14.00;99.90
3055;DHT22;1537;52.018;8.542;2023-05-07T19:37:39;13.90;99.90
3055;DHT22;1537;52.018;8.542;2023-05-07T19:41:05;13.80;99.90
3055;DHT22;1537;52.018;8.542;2023-05-07T19:44:28;13.50;99.90
3055;DHT22;1537;52.018;8.542;2023-05-07T19:47:52;13.50;99.90
3055;DHT22;1537;52.018;8.542;2023-05-07T19:51:15;13.50;99.90
3055;DHT22;1537;52.018;8.542;2023-05-07T19:54:39;13.40;99.90
3055;DHT22;1537;52.018;8.542;2023-05-07T19:58:04;13.30;99.90
3055;DHT22;1537;52.018;8.542;2023-05-07T20:01:28;13.40;99.90
3055;DHT22;1537;52.018;8.542;2023-05-07T20:04:54;13.30;99.90
3055;DHT22;1537;52.018;8.542;2023-05-07T20:08:18;13.10;99.90
3055;DHT22;1537;52.018;8.542;2023-05-07T20:11:41;13.20;99.90
3055;DHT22;1537;52.018;8.542;2023-05-07T20:15:08;13.20;99.90
3055;DHT22;1537;52.018;8.542;2023-05-07T20:18:31;13.20;99.90
3055;DHT22;1537;52.018;8.542;2023-05-07T20:21:55;13.10;99.90
3055;DHT22;1537;52.018;8.542;2023-05-07T20:25:19;13.00;99.90
3055;DHT22;1537;52.018;8.542;2023-05-07T20:28:43;13.10;99.90
3055;DHT22;1537;52.018;8.542;2023-05-07T20:32:07;13.10;99.90
3055;DHT22;1537;52.018;8.542;2023-05-07T20:35:31;13.00;99.90
3055;DHT22;1537;52.018;8.542;2023-05-07T20:38:55;13.10;99.90
3055;DHT22;1537;52.018;8.542;2023-05-07T20:42:18;13.10;99.90
3055;DHT22;1537;52.018;8.542;2023-05-07T20:45:42;13.10;99.90
3055;DHT22;1537;52.018;8.542;2023-05-07T20:49:07;13.00;99.90
3055;DHT22;1537;52.018;8.542;2023-05-07T20:52:30;13.00;99.90
3055;DHT22;1537;52.018;8.542;2023-05-07T20:55:54;12.90;99.90
3055;DHT22;1537;52.018;8.542;2023-05-07T20:59:18;12.80;99.90
3055;DHT22;1537;52.018;8.542;2023-05-07T21:02:42;12.80;99.90
3055;DHT22;1537;52.018;8.542;2023-05-07T21:06:08;12.70;99.90
3055;DHT22;1537;52.018;8.542;2023-05-07T21:09:32;12.80;99.90
3055;DHT22;1537;52.018;8.542;2023-05-07T21:12:56;12.70;99.90
3055;DHT22;1537;52.018;8.542;2023-05-07T21:16:20;12.60;99.90
3055;DHT22;1537;52.018;8.542;2023-05-07T21:19:46;12.70;99.90
3055;DHT22;1537;52.018;8.542;2023-05-07T21:23:12;12.60;99.90
3055;DHT22;1537;52.018;8.542;2023-05-07T21:26:35;12.50;99.90
3055;DHT22;1537;52.018;8.542;2023-05-07T21:29:59;12.40;99.90
3055;DHT22;1537;52.018;8.542;2023-05-07T21:33:27;12.30;99.90
3055;DHT22;1537;52.018;8.542;2023-05-07T21:36:51;12.30;99.90
3055;DHT22;1537;52.018;8.542;2023-05-07T21:40:16;12.30;99.90
3055;DHT22;1537;52.018;8.542;2023-05-07T21:43:43;12.40;99.90
3055;DHT22;1537;52.018;8.542;2023-05-07T21:47:10;12.40;99.90
3055;DHT22;1537;52.018;8.542;2023-05-07T21:50:35;12.30;99.90
3055;DHT22;1537;52.018;8.542;2023-05-07T21:54:01;12.30;99.90
3055;DHT22;1537;52.018;8.542;2023-05-07T21:57:26;12.30;99.90
3055;DHT22;1537;52.018;8.542;2023-05-07T22:00:50;12.30;99.90
3055;DHT22;1537;52.018;8.542;2023-05-07T22:04:14;12.10;99.90
3055;DHT22;1537;52.018;8.542;2023-05-07T22:07:37;12.00;99.90
3055;DHT22;1537;52.018;8.542;2023-05-07T22:11:01;12.00;99.90
3055;DHT22;1537;52.018;8.542;2023-05-07T22:14:26;12.00;99.90
3055;DHT22;1537;52.018;8.542;2023-05-07T22:17:51;12.00;99.90
3055;DHT22;1537;52.018;8.542;2023-05-07T22:21:15;12.00;99.90
3055;DHT22;1537;52.018;8.542;2023-05-07T22:24:39;11.90;99.90